createdAt,value
2022-12-01T00:01:06.753Z,45.47
2022-12-01T00:03:33.744Z,45.30
2022-12-01T00:06:01.246Z,45.19
2022-12-01T00:08:28.066Z,45.15
2022-12-01T00:10:54.662Z,45.72
2022-12-01T00:13:21.551Z,45.67
2022-12-01T00:15:48.119Z,45.53
2022-12-01T00:18:14.748Z,45.69
2022-12-01T00:20:41.691Z,45.36
2022-12-01T00:23:08.460Z,45.57
2022-12-01T00:25:35.147Z,45.79
2022-12-01T00:28:01.752Z,45.39
2022-12-01T00:30:28.511Z,45.35
2022-12-01T00:32:55.168Z,45.46
2022-12-01T00:35:21.747Z,45.33
2022-12-01T00:37:48.383Z,45.81
2022-12-01T00:40:15.045Z,45.72
2022-12-01T00:42:41.868Z,45.29
2022-12-01T00:45:08.795Z,45.36
2022-12-01T00:47:35.968Z,45.93
2022-12-01T00:50:03.012Z,45.84
2022-12-01T00:52:29.663Z,45.88
2022-12-01T00:54:56.343Z,45.64
2022-12-01T00:57:23.024Z,45.73
2022-12-01T00:59:50.068Z,45.61
2022-12-01T01:02:17.029Z,46.08
2022-12-01T01:04:43.654Z,46.00
2022-12-01T01:07:10.419Z,46.37
2022-12-01T01:09:37.242Z,46.71
2022-12-01T01:12:03.940Z,46.77
2022-12-01T01:14:30.503Z,46.86
2022-12-01T01:16:57.174Z,46.73
2022-12-01T01:19:24.315Z,46.87
2022-12-01T01:21:50.994Z,47.25
2022-12-01T01:24:17.703Z,46.95
2022-12-01T01:26:44.410Z,47.02
2022-12-01T01:29:11.031Z,47.26
2022-12-01T01:31:37.985Z,47.04
2022-12-01T01:34:05.057Z,47.37
2022-12-01T01:36:31.941Z,47.92
2022-12-01T01:38:58.561Z,47.56
2022-12-01T01:41:25.333Z,47.38
2022-12-01T01:43:53.460Z,47.93
2022-12-01T01:46:24.452Z,47.93
2022-12-01T01:48:51.105Z,47.74
2022-12-01T01:51:19.288Z,47.93
2022-12-01T01:53:49.643Z,47.91
2022-12-01T01:56:16.863Z,48.34
2022-12-01T01:58:44.248Z,48.47
2022-12-01T02:01:10.943Z,48.40
2022-12-01T02:03:38.344Z,48.06
2022-12-01T02:06:06.561Z,48.37
2022-12-01T02:08:34.569Z,48.28
2022-12-01T02:11:10.427Z,47.97
2022-12-01T02:13:51.592Z,48.32
2022-12-01T02:16:39.637Z,48.37
2022-12-01T02:19:25.195Z,48.36
2022-12-01T02:22:03.744Z,48.73
2022-12-01T02:24:30.311Z,48.70
2022-12-01T02:27:05.084Z,48.90
2022-12-01T02:29:31.667Z,48.82
2022-12-01T02:32:07.321Z,48.47
2022-12-01T02:34:41.464Z,48.52
2022-12-01T02:37:16.508Z,48.66
2022-12-01T02:39:49.008Z,48.86
2022-12-01T02:42:50.061Z,48.82
2022-12-01T02:45:22.601Z,49.07
2022-12-01T02:47:52.564Z,48.70
2022-12-01T02:50:20.625Z,48.66
2022-12-01T02:52:47.470Z,49.17
2022-12-01T02:55:14.118Z,49.09
2022-12-01T02:57:40.700Z,48.88
2022-12-01T03:00:07.710Z,48.75
2022-12-01T03:03:00.559Z,48.86
2022-12-01T03:05:30.296Z,49.16
2022-12-01T03:07:57.601Z,49.13
2022-12-01T03:10:27.326Z,48.82
2022-12-01T03:12:56.723Z,49.33
2022-12-01T03:15:26.236Z,49.17
2022-12-01T03:17:58.850Z,49.22
2022-12-01T03:20:35.248Z,49.50
2022-12-01T03:23:08.954Z,49.36
2022-12-01T03:25:36.764Z,49.67
2022-12-01T03:28:22.138Z,49.48
2022-12-01T03:30:52.844Z,49.39
2022-12-01T03:33:24.114Z,49.41
2022-12-01T03:36:06.014Z,49.54
2022-12-01T03:38:37.711Z,49.38
2022-12-01T03:41:12.507Z,49.72
2022-12-01T03:43:42.192Z,49.78
2022-12-01T03:46:14.796Z,50.04
2022-12-01T03:48:42.081Z,49.98
2022-12-01T03:51:27.562Z,50.14
2022-12-01T03:54:08.266Z,49.86
2022-12-01T03:56:38.828Z,50.09
2022-12-01T03:59:08.871Z,50.05
2022-12-01T04:01:36.157Z,50.17
2022-12-01T04:04:12.717Z,50.35
2022-12-01T04:06:40.566Z,50.18
2022-12-01T04:09:07.142Z,50.23
2022-12-01T04:11:52.137Z,50.47
2022-12-01T04:14:18.727Z,50.36
2022-12-01T04:16:45.403Z,50.31
2022-12-01T04:19:11.983Z,50.66
2022-12-01T04:21:38.595Z,50.62
2022-12-01T04:24:05.313Z,50.89
2022-12-01T04:26:35.927Z,50.96
2022-12-01T04:29:08.486Z,50.51
2022-12-01T04:31:35.719Z,50.52
2022-12-01T04:34:02.387Z,50.49
2022-12-01T04:36:33.380Z,50.67
2022-12-01T04:39:00.079Z,50.93
2022-12-01T04:41:26.895Z,50.90
2022-12-01T04:43:54.882Z,51.24
2022-12-01T04:46:21.901Z,51.22
2022-12-01T04:48:48.699Z,51.33
2022-12-01T04:51:15.300Z,51.09
2022-12-01T04:53:42.043Z,50.87
2022-12-01T04:56:08.657Z,51.07
2022-12-01T04:58:37.950Z,51.02
2022-12-01T05:01:06.162Z,50.99
2022-12-01T05:03:33.064Z,51.18
2022-12-01T05:06:07.689Z,50.84
2022-12-01T05:08:36.474Z,50.96
2022-12-01T05:11:03.233Z,51.05
2022-12-01T05:13:29.854Z,50.97
2022-12-01T05:16:16.801Z,50.94
2022-12-01T05:18:43.460Z,51.07
2022-12-01T05:21:11.199Z,51.23
2022-12-01T05:23:38.961Z,50.76
2022-12-01T05:26:06.718Z,50.90
2022-12-01T05:28:33.710Z,51.33
2022-12-01T05:31:00.363Z,50.82
2022-12-01T05:33:27.619Z,51.23
2022-12-01T05:35:54.734Z,51.40
2022-12-01T05:38:21.584Z,51.50
2022-12-01T05:40:52.292Z,51.62
2022-12-01T05:43:21.655Z,51.50
2022-12-01T05:45:52.059Z,51.89
2022-12-01T05:48:22.335Z,51.63
2022-12-01T05:50:48.917Z,51.94
2022-12-01T05:53:15.808Z,52.40
2022-12-01T05:55:42.591Z,52.10
2022-12-01T05:58:09.989Z,52.22
2022-12-01T06:00:42.281Z,51.86
2022-12-01T06:03:12.076Z,52.28
2022-12-01T06:05:38.778Z,52.07
2022-12-01T06:08:05.539Z,51.58
2022-12-01T06:10:32.177Z,51.62
2022-12-01T06:12:58.781Z,51.91
2022-12-01T06:15:25.349Z,51.68
2022-12-01T06:17:51.941Z,51.83
2022-12-01T06:20:18.669Z,51.58
2022-12-01T06:22:45.262Z,51.55
2022-12-01T06:25:11.942Z,51.48
2022-12-01T06:27:38.616Z,51.10
2022-12-01T06:30:05.556Z,51.25
2022-12-01T06:32:32.160Z,50.89
2022-12-01T06:34:58.868Z,50.52
2022-12-01T06:37:26.838Z,50.72
2022-12-01T06:39:53.459Z,50.72
2022-12-01T06:42:20.039Z,50.18
2022-12-01T06:44:46.602Z,50.13
2022-12-01T06:47:13.356Z,50.09
2022-12-01T06:49:39.970Z,49.95
2022-12-01T06:52:06.604Z,49.57
2022-12-01T06:54:33.701Z,49.64
2022-12-01T06:57:00.369Z,49.28
2022-12-01T06:59:27.353Z,49.27
2022-12-01T07:01:59.834Z,48.82
2022-12-01T07:04:27.717Z,48.97
2022-12-01T07:06:54.609Z,48.58
2022-12-01T07:09:22.183Z,48.22
2022-12-01T07:11:49.138Z,48.34
2022-12-01T07:14:22.633Z,48.59
2022-12-01T07:16:49.585Z,48.72
2022-12-01T07:19:16.555Z,48.93
2022-12-01T07:21:43.555Z,49.25
2022-12-01T07:24:10.520Z,49.09
2022-12-01T07:26:39.241Z,48.41
2022-12-01T07:29:06.097Z,48.50
2022-12-01T07:31:33.351Z,47.86
2022-12-01T07:34:00.036Z,43.13
2022-12-01T07:36:26.657Z,38.86
2022-12-01T07:38:53.280Z,40.62
2022-12-01T07:41:20.238Z,41.23
2022-12-01T07:43:48.279Z,41.36
2022-12-01T07:46:23.253Z,42.04
2022-12-01T07:48:51.180Z,41.97
2022-12-01T07:51:17.983Z,41.82
2022-12-01T07:53:47.070Z,42.27
2022-12-01T07:56:13.858Z,42.00
2022-12-01T07:58:42.892Z,42.14
2022-12-01T08:01:10.672Z,42.55
2022-12-01T08:03:37.384Z,42.11
2022-12-01T08:06:04.844Z,42.38
2022-12-01T08:08:44.586Z,42.58
2022-12-01T08:11:12.547Z,42.40
2022-12-01T08:13:39.603Z,42.29
2022-12-01T08:16:06.721Z,42.59
2022-12-01T08:18:38.606Z,42.12
2022-12-01T08:21:06.092Z,42.46
2022-12-01T08:23:33.211Z,42.16
2022-12-01T08:26:04.290Z,42.90
2022-12-01T08:28:40.406Z,43.21
2022-12-01T08:31:17.078Z,43.51
2022-12-01T08:33:43.840Z,43.25
2022-12-01T08:36:10.505Z,42.96
2022-12-01T08:38:39.304Z,42.77
2022-12-01T08:41:07.430Z,42.60
2022-12-01T08:43:56.467Z,42.72
2022-12-01T08:46:20.888Z,42.71
2022-12-01T08:48:47.532Z,42.47
2022-12-01T08:51:15.351Z,42.56
2022-12-01T08:53:46.394Z,42.43
2022-12-01T08:56:15.605Z,42.45
2022-12-01T08:58:42.328Z,42.34
2022-12-01T09:01:10.178Z,42.62
2022-12-01T09:03:37.369Z,42.27
2022-12-01T09:06:20.365Z,42.72
2022-12-01T09:08:47.402Z,42.68
2022-12-01T09:11:15.332Z,42.63
2022-12-01T09:13:42.265Z,42.85
2022-12-01T09:16:13.525Z,42.85
2022-12-01T09:18:40.723Z,42.62
2022-12-01T09:21:10.960Z,42.76
2022-12-01T09:23:37.727Z,42.57
2022-12-01T09:26:04.336Z,42.78
2022-12-01T09:28:41.548Z,42.84
2022-12-01T09:31:09.429Z,42.52
2022-12-01T09:33:36.873Z,42.52
2022-12-01T09:36:04.696Z,42.69
2022-12-01T09:38:40.432Z,42.44
2022-12-01T09:41:21.063Z,42.33
2022-12-01T09:43:50.601Z,42.53
2022-12-01T09:46:21.613Z,42.49
2022-12-01T09:48:49.781Z,42.60
2022-12-01T09:51:17.814Z,42.57
2022-12-01T09:53:45.070Z,42.19
2022-12-01T09:56:19.189Z,42.08
2022-12-01T09:58:46.206Z,42.27
2022-12-01T10:01:17.688Z,41.98
2022-12-01T10:03:50.001Z,42.02
2022-12-01T10:06:28.823Z,42.16
2022-12-01T10:08:58.761Z,42.34
2022-12-01T10:11:28.217Z,41.90
2022-12-01T10:13:54.904Z,41.92
2022-12-01T10:16:28.718Z,42.13
2022-12-01T10:19:01.600Z,41.83
2022-12-01T10:21:49.075Z,42.10
2022-12-01T10:24:18.771Z,42.11
2022-12-01T10:27:08.438Z,42.22
2022-12-01T10:29:47.569Z,41.92
2022-12-01T10:32:23.342Z,42.06
2022-12-01T10:34:49.976Z,41.75
2022-12-01T10:37:24.497Z,41.74
2022-12-01T10:39:52.636Z,42.15
2022-12-01T10:42:24.835Z,41.70
2022-12-01T10:44:54.611Z,41.81
2022-12-01T10:47:22.954Z,41.75
2022-12-01T10:49:49.945Z,41.77
2022-12-01T10:52:42.836Z,41.84
2022-12-01T10:55:29.224Z,42.09
2022-12-01T10:57:57.378Z,42.01
2022-12-01T11:00:51.385Z,41.83
2022-12-01T11:03:23.217Z,41.85
2022-12-01T11:05:54.967Z,41.78
2022-12-01T11:08:44.648Z,41.85
2022-12-01T11:11:40.815Z,41.82
2022-12-01T11:14:17.231Z,42.27
2022-12-01T11:16:45.393Z,42.14
2022-12-01T11:19:27.828Z,42.19
2022-12-01T11:21:56.392Z,42.42
2022-12-01T11:24:26.096Z,42.51
2022-12-01T11:26:52.733Z,42.39
2022-12-01T11:29:36.204Z,42.64
2022-12-01T11:32:15.478Z,42.52
2022-12-01T11:34:48.681Z,42.58
2022-12-01T11:37:17.317Z,42.97
2022-12-01T11:39:44.962Z,42.99
2022-12-01T11:42:14.313Z,42.84
2022-12-01T11:44:51.713Z,43.16
2022-12-01T11:47:24.369Z,43.07
2022-12-01T11:49:58.544Z,43.16
2022-12-01T11:52:25.369Z,43.10
2022-12-01T11:54:56.040Z,43.34
2022-12-01T11:57:37.662Z,43.48
2022-12-01T12:00:18.127Z,43.13
2022-12-01T12:03:05.015Z,43.40
2022-12-01T12:05:41.980Z,43.16
2022-12-01T12:08:14.790Z,43.44
2022-12-01T12:10:44.207Z,43.51
2022-12-01T12:13:10.933Z,43.67
2022-12-01T12:15:40.412Z,43.48
2022-12-01T12:18:07.348Z,43.91
2022-12-01T12:20:43.907Z,43.55
2022-12-01T12:23:10.545Z,43.51
2022-12-01T12:25:37.151Z,43.48
2022-12-01T12:28:16.510Z,43.69
2022-12-01T12:30:51.954Z,43.78
2022-12-01T12:33:36.465Z,43.56
2022-12-01T12:36:29.978Z,43.59
2022-12-01T12:39:12.170Z,43.49
2022-12-01T12:41:46.566Z,43.73
2022-12-01T12:44:24.117Z,43.91
2022-12-01T12:46:56.849Z,43.70
2022-12-01T12:49:29.060Z,43.70
2022-12-01T12:52:08.438Z,43.93
2022-12-01T12:54:41.910Z,44.10
2022-12-01T12:57:21.148Z,43.85
2022-12-01T13:00:00.214Z,43.81
2022-12-01T13:02:27.328Z,43.92
2022-12-01T13:05:07.098Z,43.85
2022-12-01T13:07:33.753Z,43.78
2022-12-01T13:10:07.253Z,44.02
2022-12-01T13:12:39.572Z,44.08
2022-12-01T13:15:06.205Z,43.96
2022-12-01T13:17:41.841Z,44.06
2022-12-01T13:20:19.793Z,43.97
2022-12-01T13:22:47.930Z,44.30
2022-12-01T13:25:16.717Z,44.06
2022-12-01T13:27:44.220Z,44.11
2022-12-01T13:30:19.388Z,44.47
2022-12-01T13:32:46.684Z,44.55
2022-12-01T13:35:19.423Z,44.58
2022-12-01T13:37:46.202Z,44.42
2022-12-01T13:40:23.959Z,44.25
2022-12-01T13:42:56.691Z,44.53
2022-12-01T13:45:23.819Z,44.43
2022-12-01T13:47:52.369Z,44.54
2022-12-01T13:50:39.351Z,44.77
2022-12-01T13:53:25.390Z,44.70
2022-12-01T13:55:59.490Z,44.38
2022-12-01T13:58:47.470Z,44.76
2022-12-01T14:01:20.585Z,44.64
2022-12-01T14:04:01.305Z,44.41
2022-12-01T14:06:38.676Z,44.92
2022-12-01T14:09:07.452Z,44.51
2022-12-01T14:11:34.907Z,44.90
2022-12-01T14:14:07.388Z,44.79
2022-12-01T14:16:53.547Z,44.85
2022-12-01T14:19:38.964Z,44.72
2022-12-01T14:22:06.559Z,45.09
2022-12-01T14:24:43.887Z,44.79
2022-12-01T14:27:14.126Z,45.19
2022-12-01T14:29:48.193Z,45.24
2022-12-01T14:32:18.023Z,45.01
2022-12-01T14:34:44.616Z,45.06
2022-12-01T14:37:18.874Z,44.85
2022-12-01T14:40:04.001Z,44.74
2022-12-01T14:42:51.374Z,45.07
2022-12-01T14:45:20.809Z,45.13
2022-12-01T14:47:51.232Z,44.99
2022-12-01T14:50:46.792Z,45.13
2022-12-01T14:53:16.685Z,44.93
2022-12-01T14:55:48.166Z,45.27
2022-12-01T14:58:17.676Z,44.94
2022-12-01T15:01:04.927Z,45.08
2022-12-01T15:03:51.576Z,44.93
2022-12-01T15:06:19.590Z,45.03
2022-12-01T15:09:04.198Z,45.05
2022-12-01T15:11:33.668Z,45.06
2022-12-01T15:14:00.317Z,45.32
2022-12-01T15:16:29.409Z,45.47
2022-12-01T15:18:56.389Z,45.55
2022-12-01T15:21:27.583Z,45.27
2022-12-01T15:24:01.565Z,45.50
2022-12-01T15:26:32.732Z,45.80
2022-12-01T15:29:11.288Z,45.76
2022-12-01T15:31:38.503Z,46.05
2022-12-01T15:34:05.694Z,45.91
2022-12-01T15:36:32.496Z,45.94
2022-12-01T15:39:06.889Z,46.27
2022-12-01T15:41:34.629Z,46.09
2022-12-01T15:44:03.833Z,46.45
2022-12-01T15:46:37.305Z,46.23
2022-12-01T15:49:30.256Z,46.79
2022-12-01T15:52:17.175Z,46.41
2022-12-01T15:54:47.480Z,46.38
2022-12-01T15:57:18.787Z,46.23
2022-12-01T15:59:47.064Z,46.16
2022-12-01T16:02:13.721Z,46.00
2022-12-01T16:04:40.443Z,46.31
2022-12-01T16:07:08.898Z,46.27
2022-12-01T16:09:40.202Z,46.19
2022-12-01T16:12:09.544Z,46.34
2022-12-01T16:14:36.752Z,46.03
2022-12-01T16:17:04.573Z,46.06
2022-12-01T16:19:32.465Z,46.20
2022-12-01T16:22:11.354Z,46.06
2022-12-01T16:24:43.176Z,46.35
2022-12-01T16:27:20.517Z,46.37
2022-12-01T16:29:58.136Z,46.19
2022-12-01T16:32:27.901Z,46.17
2022-12-01T16:34:54.503Z,46.64
2022-12-01T16:37:22.308Z,46.33
2022-12-01T16:39:49.445Z,46.66
2022-12-01T16:42:17.493Z,46.67
2022-12-01T16:44:45.905Z,46.30
2022-12-01T16:47:23.251Z,46.68
2022-12-01T16:49:50.149Z,46.30
2022-12-01T16:55:03.967Z,46.47
2022-12-01T16:57:30.679Z,46.72
2022-12-01T16:59:57.257Z,46.67
2022-12-01T17:02:23.935Z,46.77
2022-12-01T17:04:50.954Z,46.78
2022-12-01T17:07:18.120Z,46.53
2022-12-01T17:09:44.776Z,46.47
2022-12-01T17:12:11.346Z,46.79
2022-12-01T17:14:38.206Z,46.52
2022-12-01T17:17:04.812Z,46.29
2022-12-01T17:19:31.434Z,46.57
2022-12-01T17:21:58.426Z,46.42
2022-12-01T17:24:26.110Z,46.64
2022-12-01T17:26:52.793Z,46.69
2022-12-01T17:29:19.585Z,46.47
2022-12-01T17:31:58.912Z,46.77
2022-12-01T17:34:25.880Z,46.56
2022-12-01T17:36:52.490Z,46.70
2022-12-01T17:39:19.691Z,46.42
2022-12-01T17:41:46.315Z,46.74
2022-12-01T17:44:13.124Z,46.38
2022-12-01T17:46:41.887Z,46.67
2022-12-01T17:49:10.796Z,46.37
2022-12-01T17:51:37.994Z,46.44
2022-12-01T17:54:04.831Z,46.72
2022-12-01T17:56:31.723Z,46.40
2022-12-01T17:58:58.320Z,46.43
2022-12-01T18:01:29.954Z,46.40
2022-12-01T18:03:57.555Z,46.52
2022-12-01T18:06:25.738Z,46.50
2022-12-01T18:08:57.613Z,46.74
2022-12-01T18:11:30.990Z,46.74
2022-12-01T18:13:58.368Z,46.41
2022-12-01T18:16:26.380Z,46.68
2022-12-01T18:18:53.599Z,46.87
2022-12-01T18:21:21.335Z,46.42
2022-12-01T18:23:51.524Z,46.75
2022-12-01T18:26:19.242Z,46.89
2022-12-01T18:28:45.898Z,46.90
2022-12-01T18:31:14.098Z,46.82
2022-12-01T18:33:42.100Z,46.95
2022-12-01T18:36:12.664Z,46.53
2022-12-01T18:38:40.446Z,46.80
2022-12-01T18:41:07.548Z,46.75
2022-12-01T18:43:34.196Z,46.92
2022-12-01T18:46:02.778Z,46.82
2022-12-01T18:48:30.965Z,46.99
2022-12-01T18:51:01.970Z,46.80
2022-12-01T18:53:28.661Z,46.91
2022-12-01T18:55:55.290Z,46.51
2022-12-01T18:58:21.991Z,46.54
2022-12-01T19:00:48.730Z,46.89
2022-12-01T19:03:16.057Z,46.88
2022-12-01T19:05:45.531Z,46.93
2022-12-01T19:08:13.441Z,46.59
2022-12-01T19:10:40.218Z,46.56
2022-12-01T19:13:06.874Z,46.54
2022-12-01T19:15:36.069Z,46.67
2022-12-01T19:18:02.830Z,46.79
2022-12-01T19:20:29.521Z,47.01
2022-12-01T19:22:56.098Z,46.96
2022-12-01T19:25:22.816Z,46.63
2022-12-01T19:27:51.324Z,46.86
2022-12-01T19:30:17.956Z,46.73
2022-12-01T19:32:44.836Z,46.62
2022-12-01T19:35:11.465Z,46.76
2022-12-01T19:37:38.048Z,47.09
2022-12-01T19:40:04.803Z,46.79
2022-12-01T19:42:31.410Z,46.90
2022-12-01T19:44:58.764Z,46.80
2022-12-01T19:47:25.393Z,46.94
2022-12-01T19:49:51.982Z,46.79
2022-12-01T19:52:18.573Z,46.97
2022-12-01T19:54:45.189Z,46.96
2022-12-01T19:57:11.806Z,47.02
2022-12-01T19:59:38.411Z,46.98
2022-12-01T20:02:05.341Z,46.81
2022-12-01T20:04:32.245Z,47.13
2022-12-01T20:06:58.893Z,46.76
2022-12-01T20:09:29.934Z,47.08
2022-12-01T20:11:56.523Z,47.16
2022-12-01T20:14:23.146Z,47.04
2022-12-01T20:16:50.022Z,47.32
2022-12-01T20:19:16.702Z,46.97
2022-12-01T20:21:44.431Z,47.15
2022-12-01T20:24:22.232Z,47.02
2022-12-01T20:26:50.060Z,47.46
2022-12-01T20:29:21.815Z,47.17
2022-12-01T20:31:49.152Z,47.07
2022-12-01T20:34:17.893Z,46.95
2022-12-01T20:36:44.580Z,47.17
2022-12-01T20:39:13.164Z,47.04
2022-12-01T20:41:40.794Z,47.12
2022-12-01T20:44:08.485Z,47.22
2022-12-01T20:46:35.971Z,46.80
2022-12-01T20:49:02.956Z,46.97
2022-12-01T20:51:33.455Z,46.94
2022-12-01T20:54:26.657Z,47.06
2022-12-01T20:56:47.695Z,46.91
2022-12-01T20:59:14.451Z,47.33
2022-12-01T21:01:41.286Z,47.15
2022-12-01T21:04:09.014Z,47.04
2022-12-01T21:06:35.733Z,46.77
2022-12-01T21:09:03.559Z,46.70
2022-12-01T21:11:53.284Z,47.05
2022-12-01T21:14:24.641Z,47.00
2022-12-01T21:16:55.212Z,47.17
2022-12-01T21:19:24.694Z,47.18
2022-12-01T21:21:51.500Z,46.99
2022-12-01T21:24:19.915Z,47.05
2022-12-01T21:26:59.004Z,46.77
2022-12-01T21:29:28.301Z,46.73
2022-12-01T21:31:58.805Z,46.98
2022-12-01T21:34:26.862Z,46.50
2022-12-01T21:36:56.217Z,46.81
2022-12-01T21:39:25.133Z,46.43
2022-12-01T21:41:55.146Z,46.41
2022-12-01T21:44:22.660Z,46.35
2022-12-01T21:46:52.137Z,46.17
2022-12-01T21:49:21.456Z,46.07
2022-12-01T21:51:50.435Z,46.34
2022-12-01T21:54:20.705Z,45.91
2022-12-01T21:56:58.719Z,46.02
2022-12-01T21:59:25.561Z,45.88
2022-12-01T22:01:54.981Z,46.26
2022-12-01T22:04:23.500Z,46.05
2022-12-01T22:06:53.228Z,46.59
2022-12-01T22:09:22.877Z,45.64
2022-12-01T22:11:52.348Z,45.52
2022-12-01T22:14:21.293Z,45.82
2022-12-01T22:16:51.962Z,45.92
2022-12-01T22:19:22.761Z,45.83
2022-12-01T22:21:50.414Z,47.22
2022-12-01T22:24:27.577Z,46.86
2022-12-01T22:27:03.103Z,46.79
2022-12-01T22:29:32.137Z,46.88
2022-12-01T22:32:02.096Z,46.35
2022-12-01T22:34:28.875Z,46.74
2022-12-01T22:36:55.676Z,46.41
2022-12-01T22:39:30.196Z,46.09
2022-12-01T22:41:59.924Z,46.17
2022-12-01T22:44:28.217Z,46.24
2022-12-01T22:46:58.467Z,46.17
2022-12-01T22:49:25.663Z,45.91
2022-12-01T22:51:56.954Z,45.66
2022-12-01T22:54:33.325Z,45.55
2022-12-01T22:57:03.584Z,45.46
2022-12-01T22:59:42.943Z,45.30
2022-12-01T23:02:20.727Z,45.00
2022-12-01T23:04:49.571Z,45.29
2022-12-01T23:07:26.399Z,45.08
2022-12-01T23:09:53.234Z,45.17
2022-12-01T23:12:22.161Z,45.12
2022-12-01T23:14:50.739Z,44.70
2022-12-01T23:17:21.119Z,45.13
2022-12-01T23:19:49.369Z,45.00
2022-12-01T23:22:17.034Z,45.14
2022-12-01T23:24:45.043Z,45.19
2022-12-01T23:27:12.089Z,44.79
2022-12-01T23:29:38.962Z,45.14
2022-12-01T23:32:06.045Z,45.42
2022-12-01T23:34:34.183Z,45.35
2022-12-01T23:37:01.282Z,45.10
2022-12-01T23:39:31.371Z,45.16
2022-12-01T23:41:58.912Z,45.36
2022-12-01T23:44:29.126Z,44.95
2022-12-01T23:46:57.681Z,45.00
2022-12-01T23:49:27.831Z,45.36
2022-12-01T23:51:55.864Z,45.12
2022-12-01T23:54:28.366Z,44.85
2022-12-01T23:56:56.342Z,44.74
2022-12-01T23:59:23.202Z,44.88
